createdAt,value
2022-11-08T00:02:58.484Z,27.80
2022-11-08T00:08:22.236Z,29.30
2022-11-08T00:13:46.699Z,29.00
2022-11-08T00:18:48.598Z,33.00
2022-11-08T00:23:50.449Z,27.00
2022-11-08T00:28:52.304Z,35.90
2022-11-08T00:33:54.106Z,29.00
2022-11-08T00:38:56.040Z,32.70
2022-11-08T00:43:57.842Z,29.20
2022-11-08T00:48:59.629Z,26.90
2022-11-08T00:54:01.490Z,30.70
2022-11-08T00:59:03.409Z,25.20
2022-11-08T01:04:05.841Z,28.80
2022-11-08T01:09:08.330Z,25.00
2022-11-08T01:14:10.150Z,23.80
2022-11-08T01:19:12.327Z,25.20
2022-11-08T01:24:14.158Z,30.80
2022-11-08T01:29:15.933Z,27.40
2022-11-08T01:34:17.700Z,27.60
2022-11-08T01:39:19.471Z,27.50
2022-11-08T01:44:22.308Z,23.00
2022-11-08T01:49:27.773Z,23.30
2022-11-08T01:54:40.091Z,21.50
2022-11-08T01:59:45.282Z,21.60
2022-11-08T02:04:47.743Z,22.30
2022-11-08T02:09:49.530Z,21.30
2022-11-08T02:14:51.436Z,20.10
2022-11-08T02:19:53.381Z,21.00
2022-11-08T02:24:58.466Z,22.50
2022-11-08T02:30:00.287Z,23.20
2022-11-08T02:35:02.450Z,22.10
2022-11-08T02:40:05.412Z,21.60
2022-11-08T02:45:07.932Z,21.40
2022-11-08T02:50:10.197Z,23.30
2022-11-08T02:55:11.984Z,19.90
2022-11-08T03:00:14.352Z,23.60
2022-11-08T03:05:16.184Z,24.20
2022-11-08T03:10:18.766Z,18.90
2022-11-08T03:15:20.692Z,18.70
2022-11-08T03:20:22.854Z,18.60
2022-11-08T03:25:24.759Z,20.30
2022-11-08T03:30:26.531Z,21.30
2022-11-08T03:35:28.463Z,19.00
2022-11-08T03:40:30.285Z,17.80
2022-11-08T03:45:32.249Z,18.30
2022-11-08T03:50:34.219Z,16.50
2022-11-08T03:55:36.069Z,21.70
2022-11-08T04:00:37.935Z,21.20
2022-11-08T04:05:39.792Z,18.30
2022-11-08T04:10:41.615Z,19.80
2022-11-08T04:15:43.420Z,20.70
2022-11-08T04:21:06.626Z,24.30
2022-11-08T04:26:11.761Z,22.00
2022-11-08T04:31:16.174Z,21.60
2022-11-08T04:36:18.051Z,24.30
2022-11-08T04:41:22.807Z,19.50
2022-11-08T04:46:27.436Z,21.20
2022-11-08T04:51:31.830Z,22.40
2022-11-08T04:56:33.640Z,23.20
2022-11-08T05:01:36.403Z,23.90
2022-11-08T05:06:38.379Z,26.00
2022-11-08T05:11:40.192Z,26.30
2022-11-08T05:16:42.034Z,26.30
2022-11-08T05:22:02.705Z,28.20
2022-11-08T05:27:04.500Z,26.50
2022-11-08T05:32:06.306Z,29.40
2022-11-08T05:37:08.060Z,27.70
2022-11-08T05:42:09.935Z,26.50
2022-11-08T05:47:11.755Z,32.10
2022-11-08T05:52:13.559Z,27.10
2022-11-08T05:57:17.739Z,30.50
2022-11-08T06:02:23.173Z,28.50
2022-11-08T06:07:25.218Z,28.50
2022-11-08T06:12:27.067Z,27.80
2022-11-08T06:17:30.260Z,34.20
2022-11-08T06:22:33.043Z,31.30
2022-11-08T06:27:36.342Z,31.30
2022-11-08T06:32:38.165Z,30.30
2022-11-08T06:37:39.946Z,34.70
2022-11-08T06:42:41.777Z,38.60
2022-11-08T06:47:43.552Z,31.20
2022-11-08T06:52:45.442Z,32.60
2022-11-08T06:57:47.268Z,31.20
2022-11-08T07:02:56.677Z,28.50
2022-11-08T07:07:59.482Z,28.30
2022-11-08T07:13:03.708Z,29.30
2022-11-08T07:18:08.216Z,24.40
2022-11-08T07:23:11.254Z,25.30
2022-11-08T07:28:17.333Z,23.90
2022-11-08T07:33:19.389Z,20.50
2022-11-08T07:38:22.344Z,18.90
2022-11-08T07:43:24.896Z,20.30
2022-11-08T07:48:29.568Z,20.40
2022-11-08T07:53:31.534Z,19.40
2022-11-08T07:58:34.619Z,18.10
2022-11-08T08:03:36.588Z,19.60
2022-11-08T08:08:39.259Z,22.00
2022-11-08T08:13:41.598Z,20.10
2022-11-08T08:18:43.380Z,18.20
2022-11-08T08:23:45.218Z,18.70
2022-11-08T08:28:47.127Z,17.30
2022-11-08T08:33:48.971Z,22.50
2022-11-08T08:38:50.775Z,19.20
2022-11-08T08:43:52.579Z,16.90
2022-11-08T08:48:54.731Z,16.20
2022-11-08T08:53:58.441Z,12.10
2022-11-08T09:04:22.080Z,7.90
2022-11-08T09:09:23.938Z,9.50
2022-11-08T09:14:25.766Z,8.30
2022-11-08T09:19:27.591Z,7.40
2022-11-08T09:24:29.550Z,6.70
2022-11-08T09:29:32.097Z,7.10
2022-11-08T09:34:33.920Z,5.90
2022-11-08T09:39:36.032Z,8.30
2022-11-08T09:44:45.807Z,6.60
2022-11-08T09:50:00.862Z,5.90
2022-11-08T09:55:45.327Z,9.60
2022-11-08T10:00:51.035Z,5.50
2022-11-08T10:05:58.991Z,9.00
2022-11-08T10:11:29.527Z,5.90
2022-11-08T10:16:43.581Z,4.80
2022-11-08T10:22:08.705Z,6.30
2022-11-08T10:27:16.484Z,4.80
2022-11-08T10:32:21.835Z,3.40
2022-11-08T10:37:25.577Z,4.60
2022-11-08T10:42:45.459Z,4.20
2022-11-08T10:53:03.506Z,3.40
2022-11-08T10:58:41.669Z,4.00
2022-11-08T11:03:45.872Z,3.50
2022-11-08T11:08:49.851Z,4.80
2022-11-08T11:14:08.003Z,5.50
2022-11-08T11:19:15.123Z,8.80
2022-11-08T11:24:21.089Z,6.70
2022-11-08T11:29:30.789Z,5.60
2022-11-08T11:34:50.928Z,4.80
2022-11-08T11:40:04.966Z,4.70
2022-11-08T11:45:29.180Z,4.40
2022-11-08T11:50:37.858Z,4.00
2022-11-08T11:55:51.939Z,5.20
2022-11-08T12:01:15.839Z,4.20
2022-11-08T12:06:27.254Z,6.60
2022-11-08T12:11:40.911Z,3.40
2022-11-08T12:16:58.157Z,3.60
2022-11-08T12:22:12.282Z,3.60
2022-11-08T12:27:23.236Z,2.40
2022-11-08T12:32:43.446Z,3.30
2022-11-08T12:38:24.380Z,5.20
2022-11-08T12:43:32.202Z,7.50
2022-11-08T12:49:01.552Z,4.70
2022-11-08T12:54:29.551Z,3.40
2022-11-08T12:59:45.738Z,5.00
2022-11-08T13:05:03.089Z,2.80
2022-11-08T13:10:20.383Z,3.10
2022-11-08T13:15:25.416Z,2.90
2022-11-08T13:20:47.991Z,5.60
2022-11-08T13:25:52.029Z,2.60
2022-11-08T13:31:02.310Z,6.20
2022-11-08T13:36:09.983Z,7.90
2022-11-08T13:41:18.132Z,4.60
2022-11-08T13:46:19.952Z,7.40
2022-11-08T13:51:23.494Z,6.30
2022-11-08T13:56:44.343Z,10.20
2022-11-08T14:01:46.175Z,6.60
2022-11-08T14:07:06.853Z,5.70
2022-11-08T14:12:08.743Z,5.90
2022-11-08T14:17:34.253Z,5.10
2022-11-08T14:22:36.133Z,6.80
2022-11-08T14:27:40.233Z,7.50
2022-11-08T14:32:42.280Z,4.60
2022-11-08T14:37:44.281Z,7.90
2022-11-08T14:42:46.315Z,7.80
2022-11-08T14:48:03.432Z,6.60
2022-11-08T14:53:17.595Z,7.60
2022-11-08T14:58:20.013Z,9.00
2022-11-08T15:03:29.004Z,10.90
2022-11-08T15:08:52.766Z,12.50
2022-11-08T15:13:59.732Z,10.20
2022-11-08T15:19:37.615Z,18.40
2022-11-08T15:24:40.204Z,10.20
2022-11-08T15:29:52.648Z,12.20
2022-11-08T15:34:56.299Z,9.10
2022-11-08T15:40:16.234Z,13.20
2022-11-08T15:45:17.989Z,14.00
2022-11-08T15:50:22.830Z,15.20
2022-11-08T15:55:50.517Z,13.80
2022-11-08T16:00:52.519Z,14.60
2022-11-08T16:05:54.352Z,16.80
2022-11-08T16:10:59.901Z,18.70
2022-11-08T16:16:05.119Z,17.70
2022-11-08T16:21:09.336Z,16.20
2022-11-08T16:26:17.273Z,22.70
2022-11-08T16:31:19.080Z,21.70
2022-11-08T16:36:24.086Z,21.40
2022-11-08T16:41:26.147Z,21.70
2022-11-08T16:46:28.884Z,24.70
2022-11-08T16:51:31.028Z,26.20
2022-11-08T16:56:32.838Z,26.80
2022-11-08T17:01:34.966Z,34.30
2022-11-08T17:06:36.914Z,36.50
2022-11-08T17:11:39.781Z,34.10
2022-11-08T17:16:42.068Z,27.70
2022-11-08T17:21:45.479Z,31.70
2022-11-08T17:26:47.914Z,30.60
2022-11-08T17:31:50.153Z,31.70
2022-11-08T17:36:53.065Z,25.60
2022-11-08T17:41:54.962Z,23.90
2022-11-08T17:46:56.792Z,32.50
2022-11-08T17:51:58.797Z,64.60
2022-11-08T17:57:00.973Z,40.30
2022-11-08T18:02:03.516Z,24.70
2022-11-08T18:07:05.850Z,24.20
2022-11-08T18:12:07.862Z,21.20
2022-11-08T18:17:09.972Z,26.00
2022-11-08T18:22:11.829Z,23.40
2022-11-08T18:27:13.761Z,20.90
2022-11-08T18:32:15.710Z,21.50
2022-11-08T18:37:17.613Z,22.60
2022-11-08T18:42:19.442Z,20.80
2022-11-08T18:47:21.304Z,20.60
2022-11-08T18:52:23.116Z,19.60
2022-11-08T18:57:24.999Z,22.00
2022-11-08T19:02:26.988Z,18.50
2022-11-08T19:07:29.947Z,22.90
2022-11-08T19:12:31.780Z,22.50
2022-11-08T19:17:35.468Z,19.30
2022-11-08T19:22:37.316Z,23.30
2022-11-08T19:27:39.200Z,24.90
2022-11-08T19:32:41.061Z,19.50
2022-11-08T19:37:43.013Z,19.40
2022-11-08T19:42:44.861Z,22.60
2022-11-08T19:47:48.786Z,24.30
2022-11-08T19:52:50.644Z,27.10
2022-11-08T19:57:52.525Z,23.50
2022-11-08T20:02:54.421Z,22.10
2022-11-08T20:07:56.307Z,20.60
2022-11-08T20:12:58.292Z,21.60
2022-11-08T20:18:00.171Z,24.10
2022-11-08T20:23:01.967Z,22.30
2022-11-08T20:28:04.396Z,20.30
2022-11-08T20:33:06.310Z,22.90
2022-11-08T20:38:08.254Z,25.10
2022-11-08T20:43:10.113Z,25.40
2022-11-08T20:48:14.211Z,21.30
2022-11-08T20:53:16.214Z,20.20
2022-11-08T20:58:18.392Z,21.40
2022-11-08T21:03:21.869Z,17.80
2022-11-08T21:13:47.299Z,18.80
2022-11-08T21:18:49.144Z,20.10
2022-11-08T21:23:51.860Z,19.70
2022-11-08T21:28:54.265Z,20.90
2022-11-08T21:33:56.183Z,21.00
2022-11-08T21:38:58.086Z,19.60
2022-11-08T21:44:00.058Z,21.00
2022-11-08T21:49:02.430Z,18.30
2022-11-08T21:54:05.249Z,20.70
2022-11-08T21:59:07.063Z,18.30
2022-11-08T22:04:08.863Z,17.60
2022-11-08T22:09:11.281Z,20.80
2022-11-08T22:14:13.236Z,18.40
2022-11-08T22:19:15.326Z,23.30
2022-11-08T22:24:20.642Z,18.80
2022-11-08T22:29:22.606Z,20.60
2022-11-08T22:34:25.008Z,21.30
2022-11-08T22:39:26.834Z,18.40
2022-11-08T22:44:28.774Z,19.60
2022-11-08T22:49:30.763Z,22.10
2022-11-08T22:54:32.683Z,22.90
2022-11-08T22:59:34.543Z,21.70
2022-11-08T23:04:36.426Z,20.50
2022-11-08T23:09:38.295Z,20.10
2022-11-08T23:14:59.047Z,20.60
2022-11-08T23:20:19.617Z,18.70
2022-11-08T23:25:21.610Z,20.70
2022-11-08T23:30:42.076Z,22.10
2022-11-08T23:36:03.948Z,21.20
2022-11-08T23:41:24.316Z,20.80
2022-11-08T23:46:26.164Z,21.00
2022-11-08T23:51:28.098Z,21.80
2022-11-08T23:56:30.000Z,21.40
